createdAt,value
2023-04-02T00:02:31.206Z,98435.34
2023-04-02T00:05:16.730Z,98436.41
2023-04-02T00:07:48.874Z,98433.19
2023-04-02T00:10:27.654Z,98425.09
2023-04-02T00:13:04.394Z,98434.13
2023-04-02T00:15:31.693Z,98436.44
2023-04-02T00:18:00.008Z,98432.56
2023-04-02T00:20:28.495Z,98431.75
2023-04-02T00:22:56.601Z,98434.09
2023-04-02T00:25:28.271Z,98434.84
2023-04-02T00:27:56.601Z,98428.16
2023-04-02T00:30:23.269Z,98424.69
2023-04-02T00:32:50.053Z,98429.34
2023-04-02T00:35:26.188Z,98430.09
2023-04-02T00:37:53.351Z,98432.09
2023-04-02T00:40:23.961Z,98433.66
2023-04-02T00:42:50.876Z,98429.34
2023-04-02T00:45:33.291Z,98440.47
2023-04-02T00:48:13.395Z,98439.75
2023-04-02T00:50:43.540Z,98435.47
2023-04-02T00:53:17.390Z,98439.09
2023-04-02T00:55:44.263Z,98432.84
2023-04-02T00:58:30.053Z,98441.91
2023-04-02T01:00:57.041Z,98434.88
2023-04-02T01:03:30.614Z,98432.19
2023-04-02T01:06:04.183Z,98429.84
2023-04-02T01:08:45.474Z,98426.69
2023-04-02T01:11:49.630Z,98424.00
2023-04-02T01:14:44.367Z,98433.06
2023-04-02T01:17:26.569Z,98429.53
2023-04-02T01:20:07.608Z,98438.16
2023-04-02T01:23:00.302Z,98435.47
2023-04-02T01:25:54.732Z,98433.91
2023-04-02T01:28:51.557Z,98433.81
2023-04-02T01:31:18.431Z,98431.06
2023-04-02T01:33:45.451Z,98432.59
2023-04-02T01:36:23.371Z,98430.66
2023-04-02T01:39:02.262Z,98423.59
2023-04-02T01:41:39.579Z,98425.97
2023-04-02T01:44:10.330Z,98422.81
2023-04-02T01:46:41.479Z,98431.41
2023-04-02T01:49:18.685Z,98420.75
2023-04-02T01:51:53.129Z,98427.03
2023-04-02T01:54:21.062Z,98428.56
2023-04-02T01:56:48.500Z,98432.13
2023-04-02T01:59:22.272Z,98432.19
2023-04-02T02:02:22.069Z,98431.75
2023-04-02T02:04:48.827Z,98425.75
2023-04-02T02:07:18.470Z,98429.59
2023-04-02T02:09:45.785Z,98427.31
2023-04-02T02:12:16.218Z,98421.09
2023-04-02T02:14:50.358Z,98420.41
2023-04-02T02:17:21.602Z,98414.50
2023-04-02T02:19:52.299Z,98419.53
2023-04-02T02:22:33.886Z,98424.69
2023-04-02T02:25:03.689Z,98415.59
2023-04-02T02:27:30.713Z,98422.28
2023-04-02T02:30:04.552Z,98416.31
2023-04-02T02:32:33.256Z,98419.88
2023-04-02T02:35:12.845Z,98422.28
2023-04-02T02:37:47.682Z,98417.97
2023-04-02T02:40:36.828Z,98414.44
2023-04-02T02:43:09.497Z,98419.53
2023-04-02T02:45:39.198Z,98417.19
2023-04-02T02:48:10.888Z,98425.03
2023-04-02T02:50:38.810Z,98420.81
2023-04-02T02:53:15.799Z,98423.13
2023-04-02T02:55:42.533Z,98421.97
2023-04-02T02:58:15.624Z,98429.84
2023-04-02T03:00:42.590Z,98428.28
2023-04-02T03:03:17.025Z,98431.06
2023-04-02T03:05:44.934Z,98435.47
2023-04-02T03:08:21.652Z,98435.47
2023-04-02T03:11:01.154Z,98437.88
2023-04-02T03:13:30.199Z,98437.13
2023-04-02T03:16:21.655Z,98440.69
2023-04-02T03:18:52.706Z,98442.28
2023-04-02T03:21:37.757Z,98449.34
2023-04-02T03:24:13.219Z,98448.19
2023-04-02T03:26:46.005Z,98450.56
2023-04-02T03:29:19.036Z,98440.34
2023-04-02T03:31:50.555Z,98445.06
2023-04-02T03:34:32.918Z,98451.31
2023-04-02T03:37:10.037Z,98448.19
2023-04-02T03:39:56.420Z,98452.06
2023-04-02T03:42:26.296Z,98461.53
2023-04-02T03:45:15.848Z,98458.44
2023-04-02T03:47:49.950Z,98471.00
2023-04-02T03:50:21.608Z,98477.25
2023-04-02T03:52:48.984Z,98486.66
2023-04-02T03:55:19.447Z,98480.81
2023-04-02T03:58:07.834Z,98481.97
2023-04-02T04:00:57.680Z,98482.03
2023-04-02T04:03:30.791Z,98489.13
2023-04-02T04:06:10.947Z,98490.69
2023-04-02T04:08:52.083Z,98489.13
2023-04-02T04:11:24.885Z,98498.56
2023-04-02T04:14:00.923Z,98501.69
2023-04-02T04:16:40.278Z,98505.56
2023-04-02T04:19:19.207Z,98501.59
2023-04-02T04:21:46.317Z,98513.25
2023-04-02T04:24:39.312Z,98510.72
2023-04-02T04:27:13.960Z,98518.13
2023-04-02T04:29:59.113Z,98510.94
2023-04-02T04:32:34.705Z,98515.16
2023-04-02T04:35:38.933Z,98518.34
2023-04-02T04:38:27.618Z,98517.84
2023-04-02T04:40:58.912Z,98524.22
2023-04-02T04:43:56.971Z,98522.19
2023-04-02T04:46:33.144Z,98524.56
2023-04-02T04:49:03.124Z,98530.53
2023-04-02T04:51:42.567Z,98527.03
2023-04-02T04:54:14.281Z,98525.50
2023-04-02T04:56:46.792Z,98525.97
2023-04-02T04:59:16.389Z,98524.75
2023-04-02T05:01:53.312Z,98522.91
2023-04-02T05:04:23.090Z,98526.06
2023-04-02T05:06:56.242Z,98533.97
2023-04-02T05:09:34.074Z,98537.13
2023-04-02T05:12:35.460Z,98538.31
2023-04-02T05:15:09.944Z,98536.00
2023-04-02T05:18:05.875Z,98545.03
2023-04-02T05:20:59.069Z,98543.97
2023-04-02T05:23:39.675Z,98545.19
2023-04-02T05:26:19.020Z,98548.03
2023-04-02T05:29:00.886Z,98548.19
2023-04-02T05:31:42.480Z,98549.97
2023-04-02T05:34:12.415Z,98549.28
2023-04-02T05:36:39.860Z,98546.59
2023-04-02T05:39:11.195Z,98548.28
2023-04-02T05:41:44.626Z,98548.00
2023-04-02T05:44:39.130Z,98550.84
2023-04-02T05:47:19.571Z,98557.66
2023-04-02T05:50:05.816Z,98563.28
2023-04-02T05:52:36.332Z,98557.84
2023-04-02T05:55:06.946Z,98557.13
2023-04-02T05:57:49.536Z,98561.50
2023-04-02T06:00:39.312Z,98559.59
2023-04-02T06:03:28.982Z,98564.38
2023-04-02T06:06:01.285Z,98568.38
2023-04-02T06:08:36.772Z,98569.94
2023-04-02T06:11:13.784Z,98575.47
2023-04-02T06:13:40.455Z,98575.06
2023-04-02T06:16:07.482Z,98573.13
2023-04-02T06:18:36.895Z,98584.97
2023-04-02T06:21:05.453Z,98580.66
2023-04-02T06:23:48.377Z,98577.91
2023-04-02T06:26:38.873Z,98581.00
2023-04-02T06:29:15.873Z,98582.56
2023-04-02T06:31:50.665Z,98595.91
2023-04-02T06:34:22.388Z,98596.66
2023-04-02T06:36:51.754Z,98597.13
2023-04-02T06:39:22.808Z,98601.88
2023-04-02T06:42:07.572Z,98603.50
2023-04-02T06:44:38.265Z,98604.28
2023-04-02T06:47:36.523Z,98600.78
2023-04-02T06:50:06.564Z,98612.25
2023-04-02T06:52:39.784Z,98600.00
2023-04-02T06:55:46.641Z,98601.66
2023-04-02T06:58:15.591Z,98613.47
2023-04-02T07:00:48.035Z,98607.97
2023-04-02T07:03:27.192Z,98609.59
2023-04-02T07:05:54.343Z,98609.19
2023-04-02T07:08:21.419Z,98609.63
2023-04-02T07:10:47.975Z,98630.16
2023-04-02T07:13:20.648Z,98611.63
2023-04-02T07:15:51.165Z,98630.94
2023-04-02T07:18:38.202Z,98623.06
2023-04-02T07:21:04.981Z,98626.25
2023-04-02T07:23:31.551Z,98621.47
2023-04-02T07:25:58.570Z,98632.13
2023-04-02T07:28:26.060Z,98640.41
2023-04-02T07:30:53.041Z,98650.25
2023-04-02T07:33:23.714Z,98635.63
2023-04-02T07:35:52.475Z,98642.38
2023-04-02T07:38:19.449Z,98645.13
2023-04-02T07:40:46.145Z,98662.13
2023-04-02T07:43:12.792Z,98649.91
2023-04-02T07:45:39.328Z,98662.56
2023-04-02T07:48:11.449Z,98659.00
2023-04-02T07:50:38.536Z,98671.19
2023-04-02T07:53:07.122Z,98667.22
2023-04-02T07:55:33.835Z,98670.34
2023-04-02T07:58:00.737Z,98678.59
2023-04-02T08:00:29.033Z,98708.91
2023-04-02T08:02:56.314Z,98692.66
2023-04-02T08:05:23.083Z,98687.47
2023-04-02T08:07:56.934Z,98684.38
2023-04-02T08:10:24.434Z,98697.00
2023-04-02T08:12:51.339Z,98685.16
2023-04-02T08:15:18.378Z,98698.19
2023-04-02T08:17:45.863Z,98711.31
2023-04-02T08:20:19.274Z,98695.25
2023-04-02T08:22:46.969Z,98698.84
2023-04-02T08:25:13.770Z,98689.41
2023-04-02T08:27:40.570Z,98694.91
2023-04-02T08:30:08.713Z,98701.25
2023-04-02T08:32:35.636Z,98711.91
2023-04-02T08:35:02.697Z,98704.78
2023-04-02T08:37:29.355Z,98703.59
2023-04-02T08:39:55.919Z,98715.34
2023-04-02T08:42:49.325Z,98713.34
2023-04-02T08:45:24.834Z,98718.53
2023-04-02T08:47:56.578Z,98716.19
2023-04-02T08:50:32.840Z,98733.16
2023-04-02T08:53:02.460Z,98722.06
2023-04-02T08:55:44.011Z,98727.19
2023-04-02T08:58:50.762Z,98733.13
2023-04-02T09:01:49.826Z,98729.53
2023-04-02T09:04:20.166Z,98738.59
2023-04-02T09:06:48.393Z,98730.72
2023-04-02T09:09:16.807Z,98730.31
2023-04-02T09:11:56.328Z,98745.63
2023-04-02T09:14:50.019Z,98751.44
2023-04-02T09:17:25.394Z,98749.44
2023-04-02T09:20:23.200Z,98753.84
2023-04-02T09:22:51.700Z,98758.63
2023-04-02T09:25:21.905Z,98747.66
2023-04-02T09:27:50.538Z,98772.16
2023-04-02T09:30:32.028Z,98766.22
2023-04-02T09:33:02.592Z,98764.19
2023-04-02T09:35:32.456Z,98766.56
2023-04-02T09:38:22.287Z,98770.06
2023-04-02T09:40:54.897Z,98764.91
2023-04-02T09:43:24.812Z,98772.78
2023-04-02T09:46:02.154Z,98776.63
2023-04-02T09:49:01.012Z,98774.94
2023-04-02T09:51:35.245Z,98781.66
2023-04-02T09:54:04.849Z,98769.34
2023-04-02T09:56:36.362Z,98780.22
2023-04-02T09:59:23.657Z,98784.66
2023-04-02T10:01:56.142Z,98779.56
2023-04-02T10:04:46.973Z,98782.31
2023-04-02T10:07:40.034Z,98789.13
2023-04-02T10:10:18.732Z,98789.84
2023-04-02T10:13:00.232Z,98790.44
2023-04-02T10:15:54.180Z,98794.91
2023-04-02T10:18:49.098Z,98789.38
2023-04-02T10:21:25.300Z,98794.19
2023-04-02T10:23:51.908Z,98795.44
2023-04-02T10:26:20.321Z,98806.53
2023-04-02T10:29:06.766Z,98809.66
2023-04-02T10:32:01.322Z,98807.66
2023-04-02T10:34:43.309Z,98806.66
2023-04-02T10:37:24.863Z,98814.91
2023-04-02T10:39:59.782Z,98804.13
2023-04-02T10:42:38.746Z,98809.34
2023-04-02T10:45:31.570Z,98813.59
2023-04-02T10:48:15.654Z,98817.91
2023-04-02T10:50:48.130Z,98815.91
2023-04-02T10:53:17.816Z,98823.44
2023-04-02T10:55:51.955Z,98820.16
2023-04-02T10:58:31.944Z,98814.47
2023-04-02T11:01:08.103Z,98827.69
2023-04-02T11:03:41.576Z,98816.63
2023-04-02T11:06:17.697Z,98824.53
2023-04-02T11:08:47.780Z,98822.59
2023-04-02T11:11:27.894Z,98820.66
2023-04-02T11:14:06.044Z,98829.31
2023-04-02T11:16:34.312Z,98827.03
2023-04-02T11:19:10.578Z,98829.91
2023-04-02T11:21:57.358Z,98824.00
2023-04-02T11:24:37.333Z,98816.88
2023-04-02T11:27:05.724Z,98822.63
2023-04-02T11:29:34.620Z,98822.34
2023-04-02T11:32:27.428Z,98825.34
2023-04-02T11:35:05.950Z,98831.75
2023-04-02T11:37:44.786Z,98830.28
2023-04-02T11:40:11.724Z,98831.56
2023-04-02T11:42:40.923Z,98839.47
2023-04-02T11:45:28.565Z,98839.97
2023-04-02T11:48:01.322Z,98842.06
2023-04-02T11:50:36.771Z,98837.81
2023-04-02T11:53:12.288Z,98838.63
2023-04-02T11:56:01.558Z,98852.16
2023-04-02T11:58:47.060Z,98843.47
2023-04-02T12:01:23.481Z,98835.59
2023-04-02T12:04:11.479Z,98839.94
2023-04-02T12:06:49.042Z,98846.66
2023-04-02T12:09:53.766Z,98837.97
2023-04-02T12:12:36.500Z,98839.94
2023-04-02T12:15:04.576Z,98851.78
2023-04-02T12:17:34.824Z,98854.94
2023-04-02T12:20:09.170Z,98863.63
2023-04-02T12:22:46.041Z,98895.50
2023-04-02T12:25:40.382Z,98877.13
2023-04-02T12:28:14.562Z,98870.66
2023-04-02T12:30:41.995Z,98883.22
2023-04-02T12:33:30.406Z,98886.28
2023-04-02T12:35:59.505Z,98876.56
2023-04-02T12:38:33.456Z,98881.88
2023-04-02T12:41:03.574Z,98883.13
2023-04-02T12:43:36.125Z,98893.88
2023-04-02T12:46:06.410Z,98896.28
2023-04-02T12:48:34.839Z,98912.00
2023-04-02T12:51:03.212Z,98909.56
2023-04-02T12:53:34.962Z,98925.22
2023-04-02T12:56:01.945Z,98912.16
2023-04-02T12:58:45.420Z,98930.75
2023-04-02T13:01:16.040Z,98926.44
2023-04-02T13:03:42.690Z,98933.72
2023-04-02T13:06:28.058Z,98929.63
2023-04-02T13:08:55.158Z,98934.97
2023-04-02T13:11:22.738Z,98942.78
2023-04-02T13:13:50.513Z,98945.09
2023-04-02T13:16:17.059Z,98931.63
2023-04-02T13:18:46.863Z,98952.03
2023-04-02T13:21:16.525Z,98949.13
2023-04-02T13:23:44.213Z,98945.81
2023-04-02T13:26:22.046Z,98951.81
2023-04-02T13:29:02.267Z,98963.69
2023-04-02T13:31:32.871Z,98972.81
2023-04-02T13:33:59.571Z,98972.03
2023-04-02T13:36:29.215Z,98981.63
2023-04-02T13:38:56.208Z,98972.81
2023-04-02T13:41:27.374Z,98970.88
2023-04-02T13:43:55.638Z,98982.22
2023-04-02T13:46:27.887Z,98985.50
2023-04-02T13:48:55.882Z,98980.16
2023-04-02T13:51:27.235Z,98985.66
2023-04-02T13:53:57.094Z,98987.78
2023-04-02T13:56:24.644Z,99005.63
2023-04-02T13:58:51.900Z,98979.78
2023-04-02T14:01:21.407Z,98990.91
2023-04-02T14:03:48.144Z,98990.97
2023-04-02T14:06:26.246Z,98990.72
2023-04-02T14:09:07.892Z,99000.44
2023-04-02T14:11:58.217Z,99002.97
2023-04-02T14:14:30.632Z,99006.53
2023-04-02T14:17:16.298Z,98997.06
2023-04-02T14:20:04.799Z,99012.13
2023-04-02T14:23:08.700Z,99012.69
2023-04-02T14:26:00.606Z,99010.91
2023-04-02T14:28:38.094Z,99021.28
2023-04-02T14:31:07.689Z,99021.91
2023-04-02T14:33:47.575Z,99023.06
2023-04-02T14:36:26.571Z,99021.75
2023-04-02T14:38:59.109Z,99031.22
2023-04-02T14:41:28.988Z,99028.94
2023-04-02T14:44:02.716Z,99035.13
2023-04-02T14:46:31.403Z,99029.94
2023-04-02T14:49:13.164Z,99033.19
2023-04-02T14:51:44.828Z,99029.16
2023-04-02T14:54:18.037Z,99029.28
2023-04-02T14:56:52.504Z,99030.75
2023-04-02T14:59:28.245Z,99031.94
2023-04-02T15:02:02.392Z,99041.34
2023-04-02T15:04:38.179Z,99035.88
2023-04-02T15:07:38.391Z,99041.00
2023-04-02T15:10:32.190Z,99049.75
2023-04-02T15:13:03.851Z,99055.25
2023-04-02T15:15:43.040Z,99062.41
2023-04-02T15:18:17.795Z,99065.34
2023-04-02T15:21:20.093Z,99074.53
2023-04-02T15:23:55.515Z,99084.13
2023-04-02T15:26:29.738Z,99085.34
2023-04-02T15:29:28.387Z,99080.72
2023-04-02T15:32:10.298Z,99086.50
2023-04-02T15:35:08.262Z,99086.69
2023-04-02T15:37:55.290Z,99081.72
2023-04-02T15:40:43.151Z,99092.66
2023-04-02T15:43:30.548Z,99091.75
2023-04-02T15:46:35.551Z,99098.84
2023-04-02T15:49:20.804Z,99094.09
2023-04-02T15:52:10.608Z,99103.63
2023-04-02T15:54:45.551Z,99113.31
2023-04-02T15:57:22.526Z,99109.06
2023-04-02T16:00:03.618Z,99108.69
2023-04-02T16:02:53.772Z,99115.16
2023-04-02T16:05:42.340Z,99124.88
2023-04-02T16:08:57.210Z,99117.28
2023-04-02T16:11:25.262Z,99125.84
2023-04-02T16:13:58.324Z,99132.41
2023-04-02T16:16:34.027Z,99132.19
2023-04-02T16:19:16.049Z,99142.47
2023-04-02T16:21:50.578Z,99143.84
2023-04-02T16:24:17.313Z,99163.75
2023-04-02T16:26:58.107Z,99164.63
2023-04-02T16:29:51.589Z,99163.44
2023-04-02T16:32:51.319Z,99168.28
2023-04-02T16:38:19.835Z,99186.94
2023-04-02T16:41:07.039Z,99195.22
2023-04-02T16:44:06.357Z,99183.13
2023-04-02T16:47:11.391Z,99198.31
2023-04-02T16:49:50.191Z,99201.03
2023-04-02T16:52:34.762Z,99207.88
2023-04-02T16:55:25.383Z,99202.19
2023-04-02T16:58:27.335Z,99194.91
2023-04-02T17:01:05.053Z,99205.53
2023-04-02T17:04:00.088Z,99218.66
2023-04-02T17:06:43.862Z,99234.16
2023-04-02T17:09:28.308Z,99214.88
2023-04-02T17:12:19.949Z,99231.31
2023-04-02T17:14:52.299Z,99242.13
2023-04-02T17:17:21.419Z,99247.81
2023-04-02T17:19:51.472Z,99256.94
2023-04-02T17:22:22.322Z,99253.50
2023-04-02T17:25:01.607Z,99269.00
2023-04-02T17:27:45.115Z,99281.28
2023-04-02T17:30:29.785Z,99278.75
2023-04-02T17:32:56.450Z,99290.13
2023-04-02T17:35:46.597Z,99294.69
2023-04-02T17:38:19.972Z,99298.06
2023-04-02T17:40:54.670Z,99308.56
2023-04-02T17:43:58.341Z,99314.16
2023-04-02T17:46:46.972Z,99324.75
2023-04-02T17:49:36.852Z,99323.63
2023-04-02T17:52:14.288Z,99340.97
2023-04-02T17:54:55.574Z,99342.69
2023-04-02T17:58:01.218Z,99352.81
2023-04-02T18:00:42.824Z,99370.03
2023-04-02T18:03:18.710Z,99367.66
2023-04-02T18:05:54.405Z,99367.44
2023-04-02T18:08:49.361Z,99374.03
2023-04-02T18:11:45.008Z,99380.38
2023-04-02T18:14:30.382Z,99405.28
2023-04-02T18:17:15.376Z,99406.19
2023-04-02T18:20:11.020Z,99418.91
2023-04-02T18:22:45.970Z,99428.63
2023-04-02T18:25:21.970Z,99431.03
2023-04-02T18:28:36.096Z,99453.56
2023-04-02T18:31:14.766Z,99446.50
2023-04-02T18:34:02.272Z,99455.81
2023-04-02T18:36:52.801Z,99462.91
2023-04-02T18:39:51.549Z,99457.78
2023-04-02T18:42:53.560Z,99474.34
2023-04-02T18:45:38.544Z,99486.22
2023-04-02T18:48:10.845Z,99489.13
2023-04-02T18:50:40.819Z,99505.34
2023-04-02T18:53:24.167Z,99493.31
2023-04-02T18:56:04.552Z,99504.41
2023-04-02T18:58:53.892Z,99508.28
2023-04-02T19:01:28.068Z,99510.50
2023-04-02T19:04:04.500Z,99503.47
2023-04-02T19:06:45.957Z,99510.69
2023-04-02T19:09:17.185Z,99513.59
2023-04-02T19:11:43.737Z,99530.16
2023-04-02T19:14:12.986Z,99532.56
2023-04-02T19:17:02.807Z,99531.78
2023-04-02T19:19:32.513Z,99537.84
2023-04-02T19:22:32.440Z,99531.13
2023-04-02T19:25:36.692Z,99532.59
2023-04-02T19:28:33.974Z,99532.94
2023-04-02T19:31:17.291Z,99540.97
2023-04-02T19:33:59.390Z,99557.97
2023-04-02T19:36:45.441Z,99548.84
2023-04-02T19:39:33.049Z,99558.16
2023-04-02T19:42:15.401Z,99552.69
2023-04-02T19:44:48.320Z,99573.25
2023-04-02T19:47:17.500Z,99577.75
2023-04-02T19:49:44.382Z,99575.34
2023-04-02T19:52:11.366Z,99589.16
2023-04-02T19:54:38.592Z,99584.81
2023-04-02T19:57:05.646Z,99581.78
2023-04-02T19:59:32.494Z,99600.88
2023-04-02T20:01:59.322Z,99601.19
2023-04-02T20:04:26.128Z,99603.44
2023-04-02T20:06:52.865Z,99612.59
2023-04-02T20:09:21.158Z,99606.31
2023-04-02T20:11:47.729Z,99613.56
2023-04-02T20:14:14.305Z,99622.06
2023-04-02T20:16:41.836Z,99604.56
2023-04-02T20:19:09.772Z,99617.53
2023-04-02T20:21:38.694Z,99614.19
2023-04-02T20:24:06.743Z,99622.84
2023-04-02T20:26:35.258Z,99630.41
2023-04-02T20:29:01.902Z,99623.16
2023-04-02T20:31:28.764Z,99637.31
2023-04-02T20:33:56.915Z,99626.53
2023-04-02T20:36:24.818Z,99635.06
2023-04-02T20:38:51.972Z,99631.38
2023-04-02T20:41:19.538Z,99638.56
2023-04-02T20:43:46.156Z,99640.63
2023-04-02T20:46:13.402Z,99647.06
2023-04-02T20:48:40.486Z,99647.56
2023-04-02T20:51:09.467Z,99653.66
2023-04-02T20:53:37.875Z,99647.91
2023-04-02T20:56:06.836Z,99657.06
2023-04-02T20:58:35.514Z,99659.47
2023-04-02T21:01:09.675Z,99659.31
2023-04-02T21:03:36.791Z,99659.31
2023-04-02T21:06:04.197Z,99658.97
2023-04-02T21:08:30.875Z,99663.66
2023-04-02T21:11:07.495Z,99655.78
2023-04-02T21:13:38.642Z,99658.31
2023-04-02T21:16:12.267Z,99659.47
2023-04-02T21:18:39.102Z,99661.72
2023-04-02T21:21:07.309Z,99657.38
2023-04-02T21:23:34.406Z,99658.34
2023-04-02T21:26:06.412Z,99659.47
2023-04-02T21:28:35.019Z,99672.78
2023-04-02T21:31:06.651Z,99665.53
2023-04-02T21:33:42.362Z,99669.38
2023-04-02T21:36:12.071Z,99666.84
2023-04-02T21:38:47.585Z,99662.84
2023-04-02T21:41:19.708Z,99666.34
2023-04-02T21:43:48.334Z,99662.03
2023-04-02T21:46:19.813Z,99668.31
2023-04-02T21:48:46.832Z,99668.31
2023-04-02T21:51:18.716Z,99659.97
2023-04-02T21:53:46.140Z,99662.53
2023-04-02T21:56:16.548Z,99665.06
2023-04-02T21:58:44.487Z,99665.88
2023-04-02T22:01:23.822Z,99680.66
2023-04-02T22:03:53.717Z,99673.75
2023-04-02T22:06:22.186Z,99670.03
2023-04-02T22:08:55.231Z,99666.50
2023-04-02T22:11:26.608Z,99668.13
2023-04-02T22:13:53.850Z,99675.97
2023-04-02T22:16:23.942Z,99678.06
2023-04-02T22:18:52.300Z,99679.19
2023-04-02T22:21:19.712Z,99678.84
2023-04-02T22:23:47.015Z,99673.91
2023-04-02T22:26:15.988Z,99680.00
2023-04-02T22:28:43.025Z,99678.38
2023-04-02T22:31:18.675Z,99676.13
2023-04-02T22:33:46.301Z,99678.06
2023-04-02T22:36:14.332Z,99688.47
2023-04-02T22:38:41.350Z,99684.47
2023-04-02T22:41:14.134Z,99683.84
2023-04-02T22:43:42.913Z,99692.66
2023-04-02T22:46:11.269Z,99688.16
2023-04-02T22:48:41.247Z,99683.81
2023-04-02T22:51:11.759Z,99680.78
2023-04-02T22:53:39.225Z,99688.00
2023-04-02T22:56:07.570Z,99685.75
2023-04-02T22:58:35.065Z,99686.25
2023-04-02T23:01:12.307Z,99678.22
2023-04-02T23:03:39.088Z,99685.94
2023-04-02T23:06:08.570Z,99680.28
2023-04-02T23:08:36.724Z,99683.84
2023-04-02T23:11:12.254Z,99676.59
2023-04-02T23:13:39.938Z,99669.22
2023-04-02T23:16:10.070Z,99682.41
2023-04-02T23:18:38.494Z,99684.78
2023-04-02T23:21:06.628Z,99677.88
2023-04-02T23:23:33.459Z,99681.59
2023-04-02T23:26:12.599Z,99676.78
2023-04-02T23:28:40.062Z,99680.63
2023-04-02T23:31:08.444Z,99682.53
2023-04-02T23:33:35.713Z,99668.59
2023-04-02T23:36:34.599Z,99675.03
2023-04-02T23:39:09.453Z,99672.47
2023-04-02T23:41:37.955Z,99663.78
2023-04-02T23:44:05.800Z,99696.22
2023-04-02T23:46:33.235Z,99670.03
2023-04-02T23:49:01.023Z,99683.06
2023-04-02T23:51:28.843Z,99669.25
2023-04-02T23:53:56.289Z,99675.34
2023-04-02T23:56:23.020Z,99665.44
2023-04-02T23:58:50.911Z,99671.34
